Time;durP1;ratioP1;P1;durP2;ratioP2;P2;SDS_P1;SDS_P2;PMS_P1;PMS_P2;Temp;Humidity;BMP_temperature;BMP_pressure;BME280_temperature;BME280_humidity;BME280_pressure;Samples;Min_cycle;Max_cycle;Signal;HPM_P1;HPM_P2
2022/05/24 00:00:09;;;;;;;4.50;1.60;;;13.70;99.90;;;;;;5055256;28;20480;-84
2022/05/24 00:02:35;;;;;;;3.30;2.00;;;13.60;99.90;;;;;;5055396;28;20043;-85
2022/05/24 00:05:01;;;;;;;4.10;2.05;;;13.60;99.90;;;;;;5055066;28;20119;-85
2022/05/24 00:07:26;;;;;;;3.80;2.08;;;13.60;99.90;;;;;;5054890;28;20040;-85
2022/05/24 00:09:52;;;;;;;1.83;1.48;;;13.60;99.90;;;;;;5054890;28;20520;-85
2022/05/24 00:12:18;;;;;;;3.03;1.42;;;13.50;99.90;;;;;;5038318;28;20380;-85
2022/05/24 00:17:28;;;;;;;1.52;1.33;;;13.40;99.90;;;;;;5054773;28;20049;-85
2022/05/24 00:19:54;;;;;;;3.30;1.85;;;13.40;99.90;;;;;;5055039;28;20041;-87
2022/05/24 00:22:20;;;;;;;7.95;2.40;;;13.40;99.90;;;;;;5054566;28;20052;-85
2022/05/24 00:24:45;;;;;;;3.05;1.98;;;13.40;99.90;;;;;;5054836;28;20037;-85
2022/05/24 00:27:11;;;;;;;3.88;2.25;;;13.30;99.90;;;;;;5054699;28;20036;-85
2022/05/24 00:29:37;;;;;;;3.78;2.10;;;13.30;99.90;;;;;;5037995;28;20318;-85
2022/05/24 00:32:03;;;;;;;5.43;2.33;;;13.30;99.90;;;;;;5054699;28;20044;-85
2022/05/24 00:34:28;;;;;;;5.07;2.50;;;13.30;99.90;;;;;;5038191;28;20135;-84
2022/05/24 00:36:54;;;;;;;4.72;2.30;;;13.30;99.90;;;;;;5054521;28;20128;-86
2022/05/24 00:39:20;;;;;;;2.97;1.92;;;13.30;99.90;;;;;;5054624;28;20036;-84
2022/05/24 00:42:16;;;;;;;4.65;2.50;;;13.30;99.90;;;;;;5038107;28;20041;-85
2022/05/24 00:44:54;;;;;;;5.28;2.10;;;13.30;99.90;;;;;;5054618;28;20040;-85
2022/05/24 00:47:27;;;;;;;2.42;1.70;;;13.30;99.90;;;;;;5038258;28;20051;-85
2022/05/24 00:50:01;;;;;;;3.47;2.42;;;13.30;99.90;;;;;;5054740;28;20041;-85
2022/05/24 00:52:41;;;;;;;3.92;1.88;;;13.30;99.90;;;;;;5054278;28;20040;-86
2022/05/24 00:55:09;;;;;;;2.42;2.13;;;13.70;99.90;;;;;;5054569;28;20036;-85
2022/05/24 00:57:42;;;;;;;4.78;2.08;;;13.30;99.90;;;;;;5054492;28;20044;-86
2022/05/24 01:00:13;;;;;;;2.78;1.90;;;13.30;99.90;;;;;;5054550;28;20041;-85
2022/05/24 01:02:41;;;;;;;4.22;2.28;;;13.30;99.90;;;;;;5054840;28;20045;-85
2022/05/24 01:05:16;;;;;;;4.82;2.60;;;13.20;99.90;;;;;;5054353;28;20041;-84
2022/05/24 01:07:41;;;;;;;3.47;2.00;;;13.10;99.90;;;;;;5054942;28;20040;-85
2022/05/24 01:10:12;;;;;;;4.75;2.10;;;13.10;99.90;;;;;;5058525;28;20064;-85
2022/05/24 01:12:48;;;;;;;4.95;2.28;;;13.30;99.90;;;;;;5058467;28;20055;-85
2022/05/24 01:15:16;;;;;;;3.85;2.42;;;13.00;99.90;;;;;;5058221;28;20044;-85
2022/05/24 01:17:43;;;;;;;3.30;2.25;;;13.00;99.90;;;;;;5058036;28;20415;-84
2022/05/24 01:20:10;;;;;;;4.00;2.08;;;13.00;99.90;;;;;;5058206;28;20032;-84
2022/05/24 01:22:47;;;;;;;4.35;2.03;;;13.00;99.90;;;;;;5051291;28;20045;-85
2022/05/24 01:25:19;;;;;;;2.83;1.58;;;13.00;99.90;;;;;;5051341;28;20053;-84
2022/05/24 01:27:45;;;;;;;2.88;1.50;;;13.00;99.90;;;;;;5034555;28;20137;-84
2022/05/24 01:30:11;;;;;;;4.85;2.15;;;12.90;99.90;;;;;;5017980;28;20081;-84
2022/05/24 01:38:12;;;;;;;2.45;1.70;;;13.10;99.90;;;;;;5034595;28;20092;-85
2022/05/24 01:40:38;;;;;;;2.60;1.75;;;12.90;99.90;;;;;;5034899;28;20053;-84
2022/05/24 01:43:04;;;;;;;2.53;1.60;;;12.90;99.90;;;;;;5034401;28;20072;-83
2022/05/24 01:45:36;;;;;;;3.90;1.98;;;12.90;99.90;;;;;;5001517;28;20041;-85
2022/05/24 01:48:07;;;;;;;5.82;1.85;;;12.90;99.90;;;;;;5034570;28;20081;-84
2022/05/24 01:50:33;;;;;;;;;;;12.90;99.90;;;;;;5034821;28;20044;-84
2022/05/24 01:53:09;;;;;;;4.30;1.63;;;12.90;99.90;;;;;;5017838;28;19970;-84
2022/05/24 01:55:40;;;;;;;2.40;1.55;;;12.80;99.90;;;;;;5034514;28;20037;-84
2022/05/24 01:58:10;;;;;;;3.50;1.85;;;12.80;99.90;;;;;;5034444;28;20117;-84
2022/05/24 02:00:36;;;;;;;2.33;1.65;;;12.80;99.90;;;;;;5034163;28;20111;-85
2022/05/24 02:03:02;;;;;;;2.42;1.75;;;12.70;99.90;;;;;;5034003;28;20041;-84
2022/05/24 02:05:37;;;;;;;4.20;2.17;;;12.70;99.90;;;;;;5017682;28;20076;-85
2022/05/24 02:08:07;;;;;;;4.55;1.60;;;12.70;99.90;;;;;;5034288;28;20389;-85
2022/05/24 02:10:40;;;;;;;3.33;2.22;;;12.70;99.90;;;;;;5034270;28;20485;-84
2022/05/24 02:13:08;;;;;;;5.63;2.40;;;12.70;99.90;;;;;;5034311;28;20160;-84
2022/05/24 02:15:38;;;;;;;2.65;1.98;;;12.60;99.90;;;;;;5033637;28;20041;-85
2022/05/24 02:18:11;;;;;;;4.00;2.30;;;12.60;99.90;;;;;;5033710;28;20048;-84
2022/05/24 02:20:40;;;;;;;4.45;2.63;;;12.70;99.90;;;;;;5033638;28;20048;-85
2022/05/24 02:23:08;;;;;;;5.72;2.78;;;13.00;99.90;;;;;;5033631;28;20058;-85
2022/05/24 02:25:48;;;;;;;3.65;2.45;;;12.70;99.90;;;;;;5001142;28;20046;-84
2022/05/24 02:28:15;;;;;;;5.75;2.78;;;12.70;99.90;;;;;;5034297;28;20085;-85
2022/05/24 02:30:48;;;;;;;4.25;2.80;;;12.70;99.90;;;;;;5033636;28;20091;-85
2022/05/24 02:33:14;;;;;;;3.88;2.17;;;12.80;99.90;;;;;;5017041;28;20049;-84
2022/05/24 02:35:40;;;;;;;5.45;3.10;;;12.50;99.90;;;;;;5016898;28;20041;-85
2022/05/24 02:38:06;;;;;;;7.45;3.38;;;12.80;99.90;;;;;;5000964;28;20030;-85
2022/05/24 02:43:16;;;;;;;7.43;4.05;;;12.80;99.90;;;;;;5033283;28;20044;-86
2022/05/24 02:45:42;;;;;;;5.60;4.00;;;12.80;99.90;;;;;;5000577;28;20033;-84
2022/05/24 02:48:09;;;;;;;10.15;3.92;;;12.80;99.90;;;;;;5033357;28;20045;-85
2022/05/24 02:50:34;;;;;;;7.88;4.65;;;12.80;99.90;;;;;;5033268;28;20120;-84
2022/05/24 02:53:00;;;;;;;5.82;3.67;;;12.80;99.90;;;;;;5016582;28;20065;-85
2022/05/24 02:55:26;;;;;;;5.43;3.63;;;12.80;99.90;;;;;;5000245;28;20045;-85
2022/05/24 02:57:52;;;;;;;6.55;3.95;;;12.80;99.90;;;;;;5000263;28;20077;-84
2022/05/24 03:00:22;;;;;;;5.85;3.80;;;12.80;99.90;;;;;;5016480;28;20076;-85
2022/05/24 03:02:49;;;;;;;7.15;4.03;;;12.90;99.90;;;;;;5016850;28;20042;-84
2022/05/24 03:05:15;;;;;;;8.45;3.75;;;12.80;99.90;;;;;;5032795;28;20079;-85
2022/05/24 03:10:27;;;;;;;8.82;5.07;;;12.90;99.90;;;;;;5019123;28;20045;-86
2022/05/24 03:15:39;;;;;;;7.47;4.93;;;13.60;99.90;;;;;;5004886;28;20045;-85
2022/05/24 03:18:06;;;;;;;8.73;5.32;;;13.00;99.90;;;;;;5016360;28;20045;-84
2022/05/24 03:20:32;;;;;;;9.05;5.28;;;13.00;99.90;;;;;;5000198;28;20044;-86
2022/05/24 03:22:58;;;;;;;8.23;5.60;;;13.00;99.90;;;;;;5026930;28;20053;-86
2022/05/24 03:25:23;;;;;;;9.73;5.80;;;13.10;99.90;;;;;;4999797;28;20088;-84
2022/05/24 03:27:49;;;;;;;11.77;6.25;;;13.20;99.90;;;;;;5032497;28;20045;-84
2022/05/24 03:30:16;;;;;;;11.52;6.47;;;13.60;99.90;;;;;;5015300;28;20485;-83
2022/05/24 03:32:42;;;;;;;18.45;7.40;;;13.10;99.90;;;;;;5016160;28;20042;-83
2022/05/24 03:35:11;;;;;;;11.13;6.05;;;13.10;99.90;;;;;;5015975;28;20045;-84
2022/05/24 03:37:38;;;;;;;12.30;7.30;;;13.10;99.90;;;;;;5032665;28;20050;-84
2022/05/24 03:40:05;;;;;;;14.02;7.10;;;13.10;99.90;;;;;;5016151;28;20037;-84
2022/05/24 03:42:31;;;;;;;13.23;6.75;;;13.20;99.90;;;;;;5016216;28;20033;-84
2022/05/24 03:44:57;;;;;;;12.52;6.32;;;13.20;99.90;;;;;;5015908;28;20515;-84
2022/05/24 03:47:23;;;;;;;18.25;6.70;;;13.20;99.90;;;;;;5015877;28;20448;-83
2022/05/24 03:49:48;;;;;;;10.32;6.50;;;13.20;99.90;;;;;;5015886;28;20405;-84
2022/05/24 03:52:14;;;;;;;16.13;7.95;;;13.20;99.90;;;;;;5032346;28;20121;-84
2022/05/24 03:54:40;;;;;;;10.88;6.88;;;13.40;99.90;;;;;;4999867;28;20042;-84
2022/05/24 04:00:15;;;;;;;13.15;7.72;;;13.30;99.90;;;;;;4956359;28;20625;-84
2022/05/24 04:02:41;;;;;;;15.23;8.40;;;13.30;99.90;;;;;;4956299;28;20399;-84
2022/05/24 04:05:07;;;;;;;14.25;7.63;;;13.40;99.90;;;;;;4992616;28;20049;-84
2022/05/24 04:07:33;;;;;;;10.65;7.10;;;13.40;99.90;;;;;;5015292;28;20045;-84
2022/05/24 04:10:01;;;;;;;13.50;8.32;;;13.40;99.90;;;;;;5015788;28;20067;-84
2022/05/24 04:12:26;;;;;;;15.07;8.30;;;13.40;99.90;;;;;;4999204;28;20052;-85
2022/05/24 04:14:52;;;;;;;12.35;7.78;;;13.40;99.90;;;;;;5015458;28;20128;-85
2022/05/24 04:17:18;;;;;;;14.30;7.65;;;13.50;99.90;;;;;;4999085;28;20536;-84
2022/05/24 04:19:44;;;;;;;17.83;7.93;;;13.50;99.90;;;;;;4982785;28;20037;-85
2022/05/24 04:22:09;;;;;;;10.90;6.60;;;13.50;99.90;;;;;;5031459;28;20089;-85
2022/05/24 04:24:35;;;;;;;10.40;6.90;;;13.50;99.90;;;;;;5015212;28;20045;-85
2022/05/24 04:27:03;;;;;;;12.20;7.07;;;13.60;99.90;;;;;;4999137;28;20095;-84
2022/05/24 04:29:29;;;;;;;10.00;6.40;;;13.60;99.90;;;;;;5031944;28;20149;-84
2022/05/24 04:31:55;;;;;;;10.20;6.20;;;13.60;99.90;;;;;;5015417;28;20084;-85
2022/05/24 04:34:21;;;;;;;9.38;6.60;;;13.60;99.90;;;;;;5031574;28;20149;-85
2022/05/24 04:36:46;;;;;;;12.00;6.45;;;13.60;99.90;;;;;;4998857;28;20464;-85
2022/05/24 04:39:13;;;;;;;10.38;6.38;;;13.90;99.90;;;;;;4998979;28;20132;-85
2022/05/24 04:44:24;;;;;;;11.32;7.28;;;13.70;99.90;;;;;;5021199;28;20508;-85
2022/05/24 04:47:07;;;;;;;8.60;5.57;;;13.70;99.90;;;;;;5035570;28;20049;-85
2022/05/24 04:49:39;;;;;;;11.55;6.10;;;13.90;99.90;;;;;;5005094;28;20064;-86
2022/05/24 04:52:06;;;;;;;10.82;6.53;;;13.70;99.90;;;;;;5035451;28;20131;-84
2022/05/24 04:54:32;;;;;;;10.18;5.95;;;13.70;99.90;;;;;;5002854;28;20556;-86
2022/05/24 04:56:58;;;;;;;8.93;5.55;;;13.70;99.90;;;;;;5035409;28;20132;-85
2022/05/24 04:59:24;;;;;;;10.93;6.70;;;13.70;99.90;;;;;;5018881;28;20451;-85
2022/05/24 05:01:53;;;;;;;10.93;6.20;;;13.80;99.90;;;;;;5018752;28;20041;-85
2022/05/24 05:04:23;;;;;;;10.43;6.32;;;13.80;99.90;;;;;;5035423;28;20476;-85
2022/05/24 05:06:48;;;;;;;10.95;6.72;;;13.90;99.90;;;;;;5018866;28;20125;-85
2022/05/24 05:09:15;;;;;;;12.20;6.55;;;13.80;99.90;;;;;;5002522;28;20087;-85
2022/05/24 05:11:41;;;;;;;8.52;6.07;;;13.90;99.90;;;;;;5035110;28;20041;-85
2022/05/24 05:14:08;;;;;;;8.02;5.63;;;13.90;99.90;;;;;;5035250;28;20049;-84
2022/05/24 05:16:35;;;;;;;12.63;5.85;;;14.90;99.90;;;;;;5018659;28;20053;-85
2022/05/24 05:19:05;;;;;;;9.77;6.47;;;13.80;99.90;;;;;;5035390;28;20120;-85
2022/05/24 05:21:33;;;;;;;10.57;6.95;;;13.90;99.90;;;;;;5023364;28;20040;-86
2022/05/24 05:24:00;;;;;;;14.30;6.80;;;13.00;99.90;;;;;;5075390;28;20506;-83
2022/05/24 05:26:26;;;;;;;17.08;7.25;;;13.90;99.90;;;;;;5058134;28;20040;-85
2022/05/24 05:28:52;;;;;;;12.57;7.78;;;13.90;99.90;;;;;;5059200;28;20617;-85
2022/05/24 05:31:22;;;;;;;10.50;6.72;;;13.90;99.90;;;;;;5041645;28;20112;-85
2022/05/24 05:33:49;;;;;;;11.52;7.60;;;13.90;99.90;;;;;;5058459;28;20040;-84
2022/05/24 05:36:16;;;;;;;13.85;7.85;;;13.90;99.90;;;;;;5057843;28;20058;-82
2022/05/24 05:38:46;;;;;;;14.10;7.38;;;13.90;99.90;;;;;;5058077;28;20043;-83
2022/05/24 05:41:31;;;;;;;15.90;8.32;;;13.90;99.90;;;;;;5057827;28;20036;-84
2022/05/24 05:43:58;;;;;;;15.93;7.40;;;14.20;99.90;;;;;;5057862;28;20072;-81
2022/05/24 05:46:25;;;;;;;13.88;7.47;;;13.90;99.90;;;;;;5058117;28;20088;-82
2022/05/24 05:48:50;;;;;;;13.20;8.13;;;13.80;99.90;;;;;;5057888;28;20041;-82
2022/05/24 05:51:18;;;;;;;12.93;7.60;;;14.10;99.90;;;;;;5058025;28;20048;-83
2022/05/24 05:53:44;;;;;;;15.60;7.95;;;13.80;99.90;;;;;;5040832;28;20085;-82
2022/05/24 05:56:16;;;;;;;13.40;8.13;;;13.80;99.90;;;;;;5040977;28;20113;-82
2022/05/24 05:58:42;;;;;;;12.45;6.40;;;13.70;99.90;;;;;;5057673;28;20094;-82
2022/05/24 06:01:14;;;;;;;8.93;6.43;;;13.80;99.90;;;;;;5057589;28;20075;-81
2022/05/24 06:03:39;;;;;;;15.10;6.82;;;13.80;99.90;;;;;;5057757;28;20127;-83
2022/05/24 06:06:05;;;;;;;13.68;5.93;;;13.90;99.90;;;;;;5057329;28;20082;-84
2022/05/24 06:08:31;;;;;;;9.38;5.45;;;13.90;99.90;;;;;;5057459;28;20123;-84
2022/05/24 06:10:57;;;;;;;11.95;6.03;;;13.90;99.90;;;;;;5057304;28;20080;-86
2022/05/24 06:13:23;;;;;;;12.35;5.85;;;14.00;99.90;;;;;;5057162;28;20072;-82
2022/05/24 06:15:51;;;;;;;12.48;5.50;;;14.00;99.90;;;;;;5057381;28;20392;-82
2022/05/24 06:18:17;;;;;;;14.25;6.35;;;14.10;99.90;;;;;;5057355;28;20086;-83
2022/05/24 06:20:43;;;;;;;12.95;7.07;;;14.20;99.90;;;;;;5073702;28;20086;-77
2022/05/24 06:23:09;;;;;;;9.60;6.22;;;14.30;99.90;;;;;;5057031;28;20495;-83
2022/05/24 06:25:35;;;;;;;7.93;4.97;;;14.40;99.90;;;;;;5056945;28;20040;-83
2022/05/24 06:28:01;;;;;;;11.38;5.75;;;14.40;99.90;;;;;;5056864;28;20048;-84
2022/05/24 06:30:28;;;;;;;8.88;5.35;;;14.30;99.90;;;;;;5057158;28;20037;-83
2022/05/24 06:32:54;;;;;;;9.93;5.90;;;14.30;99.90;;;;;;5040138;28;20124;-85
2022/05/24 06:35:21;;;;;;;9.02;5.13;;;14.30;99.90;;;;;;5056601;28;20560;-85
2022/05/24 06:37:48;;;;;;;10.93;6.32;;;14.20;99.90;;;;;;5056332;28;20067;-83
2022/05/24 06:40:17;;;;;;;12.95;5.32;;;14.30;99.90;;;;;;5056688;28;20050;-83
2022/05/24 06:42:43;;;;;;;12.18;6.13;;;14.20;99.90;;;;;;5039848;28;20041;-82
2022/05/24 06:45:09;;;;;;;11.38;5.28;;;14.20;99.90;;;;;;5056365;28;20090;-83
2022/05/24 06:47:36;;;;;;;8.85;5.15;;;14.20;99.90;;;;;;5058392;28;20044;-83
2022/05/24 06:50:02;;;;;;;9.48;4.65;;;14.10;99.90;;;;;;5056279;28;20127;-82
2022/05/24 06:52:27;;;;;;;7.10;4.28;;;14.10;99.90;;;;;;5056527;28;20091;-83
2022/05/24 06:54:54;;;;;;;7.05;4.45;;;14.10;99.90;;;;;;5040022;28;20101;-82
2022/05/24 06:57:20;;;;;;;7.82;4.32;;;14.10;99.90;;;;;;5056130;28;20443;-82
2022/05/24 07:02:32;;;;;;;6.65;4.65;;;14.20;99.90;;;;;;5056232;28;20036;-82
2022/05/24 07:05:14;;;;;;;11.32;5.25;;;14.20;99.90;;;;;;5055391;28;20101;-82
2022/05/24 07:07:40;;;;;;;8.40;4.85;;;14.20;99.90;;;;;;5055984;28;20098;-83
2022/05/24 07:10:09;;;;;;;7.95;4.82;;;14.20;99.90;;;;;;5055824;28;20427;-82
2022/05/24 07:12:35;;;;;;;7.50;4.53;;;14.20;99.90;;;;;;5039865;28;20508;-83
2022/05/24 07:15:01;;;;;;;7.68;4.50;;;14.10;99.90;;;;;;5055822;28;20047;-83
2022/05/24 07:17:27;;;;;;;8.57;5.05;;;14.20;99.90;;;;;;5072311;28;20053;-83
2022/05/24 07:19:53;;;;;;;9.70;4.43;;;14.20;99.90;;;;;;5055679;28;20110;-83
2022/05/24 07:22:20;;;;;;;8.38;5.05;;;14.30;99.90;;;;;;5052532;28;20053;-82
2022/05/24 07:24:48;;;;;;;6.07;4.25;;;14.30;99.90;;;;;;5053943;28;20127;-83
2022/05/24 07:27:17;;;;;;;8.07;4.95;;;14.20;99.90;;;;;;5052194;28;20076;-83
2022/05/24 07:29:43;;;;;;;7.65;4.32;;;14.30;99.90;;;;;;5035810;28;20040;-84
2022/05/24 07:32:10;;;;;;;9.15;4.68;;;14.30;99.90;;;;;;5019321;28;20515;-83
2022/05/24 07:34:37;;;;;;;8.57;4.72;;;14.20;99.90;;;;;;5052523;28;20443;-84
2022/05/24 07:37:05;;;;;;;7.60;3.65;;;14.20;99.90;;;;;;5052074;28;20056;-84
2022/05/24 07:39:32;;;;;;;6.22;3.90;;;14.20;99.90;;;;;;5035444;28;20041;-83
2022/05/24 07:47:21;;;;;;;5.88;3.95;;;14.20;99.90;;;;;;5051842;28;20056;-83
2022/05/24 07:49:47;;;;;;;7.90;4.45;;;14.10;99.90;;;;;;5019063;28;20423;-83
2022/05/24 07:52:13;;;;;;;7.03;3.75;;;14.20;99.90;;;;;;5052172;28;20127;-83
2022/05/24 07:54:39;;;;;;;5.65;3.83;;;14.20;99.90;;;;;;5053117;28;20052;-83
2022/05/24 07:57:08;;;;;;;6.07;3.75;;;14.20;99.90;;;;;;5018819;28;20541;-83
2022/05/24 07:59:38;;;;;;;5.20;3.42;;;14.30;99.90;;;;;;5052016;28;20037;-83
2022/05/24 08:02:06;;;;;;;8.68;4.03;;;14.30;99.90;;;;;;5051673;28;20037;-84
2022/05/24 08:04:34;;;;;;;8.50;4.57;;;14.30;99.90;;;;;;5035782;28;20131;-84
2022/05/24 08:07:00;;;;;;;8.13;4.13;;;14.40;99.90;;;;;;5051853;28;20053;-83
2022/05/24 08:09:26;;;;;;;9.20;4.05;;;14.40;99.90;;;;;;5018851;28;20043;-84
2022/05/24 08:11:51;;;;;;;4.97;3.83;;;14.40;99.90;;;;;;5035325;28;20037;-83
2022/05/24 08:14:17;;;;;;;5.35;3.50;;;14.50;99.90;;;;;;5051585;28;20036;-81
2022/05/24 08:16:43;;;;;;;5.93;3.35;;;14.50;99.90;;;;;;5034697;28;20463;-82
2022/05/24 08:19:09;;;;;;;6.07;3.92;;;14.50;99.90;;;;;;5002594;28;20484;-83
2022/05/24 08:21:35;;;;;;;5.28;3.85;;;14.50;99.90;;;;;;5021311;28;20047;-82
2022/05/24 08:24:02;;;;;;;5.70;3.78;;;14.60;99.90;;;;;;5054835;28;20044;-83
2022/05/24 08:26:27;;;;;;;8.00;4.40;;;14.70;99.90;;;;;;5071732;28;20131;-83
2022/05/24 08:28:53;;;;;;;5.00;3.72;;;14.70;99.90;;;;;;5055078;28;20131;-83
2022/05/24 08:31:19;;;;;;;7.00;4.50;;;14.70;99.90;;;;;;5055044;28;20080;-83
2022/05/24 08:33:47;;;;;;;6.95;4.40;;;14.90;99.90;;;;;;5054616;28;20051;-84
2022/05/24 08:36:14;;;;;;;5.72;4.22;;;15.00;99.90;;;;;;5054667;28;20114;-84
2022/05/24 08:38:41;;;;;;;5.80;3.90;;;15.10;99.90;;;;;;5054606;28;20044;-84
2022/05/24 08:41:12;;;;;;;5.25;3.38;;;15.10;99.90;;;;;;5071278;28;20072;-83
2022/05/24 08:43:56;;;;;;;;;;;15.30;99.90;;;;;;5054908;28;20047;-84
2022/05/24 08:49:23;;;;;;;7.53;3.90;;;15.30;99.90;;;;;;5054458;28;20121;-85
2022/05/24 08:51:57;;;;;;;6.90;3.47;;;15.40;99.90;;;;;;5054464;28;20044;-84
2022/05/24 08:54:44;;;;;;;5.55;3.70;;;15.30;99.90;;;;;;5054771;28;20072;-84
2022/05/24 08:57:16;;;;;;;7.75;3.45;;;15.30;99.90;;;;;;5054467;28;20040;-82
2022/05/24 08:59:59;;;;;;;8.73;3.63;;;15.60;99.90;;;;;;5054466;28;20090;-84
2022/05/24 09:02:25;;;;;;;5.18;3.70;;;15.80;99.90;;;;;;5038220;28;20488;-84
2022/05/24 09:04:51;;;;;;;7.90;3.30;;;15.90;99.90;;;;;;5054353;28;20039;-84
2022/05/24 09:07:37;;;;;;;3.92;2.70;;;16.10;99.90;;;;;;5054371;28;20076;-85
2022/05/24 09:10:07;;;;;;;6.18;3.20;;;;;;;;;;5054365;28;20036;-84
2022/05/24 09:12:39;;;;;;;4.63;3.35;;;;;;;;;;5054337;28;20089;-83
2022/05/24 09:15:11;;;;;;;3.05;2.35;;;;;;;;;;5054272;28;20048;-84
2022/05/24 09:17:52;;;;;;;2.63;1.65;;;;;;;;;;5054241;28;20052;-84
2022/05/24 09:20:34;;;;;;;2.88;1.90;;;;;;;;;;5070894;28;20098;-84
2022/05/24 09:23:04;;;;;;;2.00;1.80;;;;;;;;;;5054106;28;20113;-84
2022/05/24 09:25:30;;;;;;;2.15;1.67;;;;;;;;;;5071220;28;20559;-83
2022/05/24 09:27:56;;;;;;;2.55;1.88;;;;;;;;;;5037674;28;20041;-84
2022/05/24 09:30:32;;;;;;;3.75;1.80;;;;;;;;;;5057685;28;20044;-84
2022/05/24 09:33:16;;;;;;;2.20;1.50;;;;;;;;;;5074451;28;20049;-85
2022/05/24 09:35:42;;;;;;;3.78;2.30;;;;;;;;;;5074375;28;20049;-83
2022/05/24 09:38:14;;;;;;;2.50;1.83;;;;;;;;;;5057511;28;20090;-83
2022/05/24 09:40:54;;;;;;;2.97;1.88;;;;;;;;;;5057615;28;20036;-85
2022/05/24 09:43:35;;;;;;;2.38;1.73;;;;;;;;;;5057549;28;20045;-84
2022/05/24 09:46:01;;;;;;;;;;;;;;;;;;5057959;28;20036;-84
2022/05/24 09:48:28;;;;;;;3.28;1.33;;;;;;;;;;5057423;28;19923;-84
2022/05/24 09:50:56;;;;;;;2.40;1.77;;;;;;;;;;5057383;28;20090;-84
2022/05/24 09:53:26;;;;;;;1.70;1.50;;;;;;;;;;5057415;28;20037;-80
2022/05/24 09:56:19;;;;;;;6.32;2.17;;;;;;;;;;5057512;28;20040;-81
2022/05/24 09:58:54;;;;;;;1.80;1.30;;;;;;;;;;5054978;28;20439;-80
2022/05/24 10:01:30;;;;;;;1.90;1.10;;;15.70;99.90;;;;;;5073890;28;20119;-81
2022/05/24 10:04:19;;;;;;;2.42;1.25;;;15.60;99.90;;;;;;5057139;28;20047;-81
2022/05/24 10:07:03;;;;;;;1.23;1.00;;;15.40;99.90;;;;;;5073763;28;20052;-81
2022/05/24 10:10:02;;;;;;;1.95;1.30;;;15.30;99.90;;;;;;5057009;28;20040;-81
2022/05/24 10:12:55;;;;;;;1.98;1.20;;;15.50;99.90;;;;;;5056912;28;20149;-81
2022/05/24 10:15:30;;;;;;;2.95;1.70;;;15.80;99.90;;;;;;5073690;28;20036;-81
2022/05/24 10:18:09;;;;;;;2.55;1.85;;;16.20;99.90;;;;;;5058467;28;20040;-81
2022/05/24 10:21:20;;;;;;;1.77;1.58;;;16.50;99.90;;;;;;5061706;28;20048;-83
2022/05/24 10:23:51;;;;;;;2.40;1.67;;;16.50;99.90;;;;;;5058567;28;20098;-83
2022/05/24 10:26:43;;;;;;;5.65;1.60;;;16.50;99.90;;;;;;5058701;28;20745;-83
2022/05/24 10:29:15;;;;;;;3.00;1.67;;;16.50;99.90;;;;;;5056754;28;20051;-78
2022/05/24 10:31:44;;;;;;;2.63;1.95;;;16.30;99.90;;;;;;5056654;28;20041;-79
2022/05/24 10:40:41;;;;;;;0.95;0.68;;;16.60;99.90;;;;;;5056344;28;20048;-80
2022/05/24 10:43:31;;;;;;;0.68;0.68;;;16.70;99.90;;;;;;5040257;28;20453;-81
2022/05/24 10:46:01;;;;;;;2.20;0.93;;;16.90;99.90;;;;;;5056347;28;20040;-81
2022/05/24 10:48:44;;;;;;;1.08;0.50;;;16.70;99.90;;;;;;5057533;28;20547;-80
2022/05/24 10:51:12;;;;;;;0.30;0.30;;;16.20;99.90;;;;;;5057166;28;20125;-79
2022/05/24 10:53:47;;;;;;;0.30;0.30;;;15.70;99.90;;;;;;5057972;28;20104;-80
2022/05/24 10:56:30;;;;;;;0.90;0.40;;;15.00;99.90;;;;;;5058334;28;20052;-79
2022/05/24 10:59:03;;;;;;;4.00;0.60;;;14.60;99.90;;;;;;5056965;28;20040;-78
2022/05/24 11:01:38;;;;;;;0.88;0.52;;;14.30;99.90;;;;;;5056438;28;20043;-80
2022/05/24 11:04:12;;;;;;;0.63;0.38;;;14.00;99.90;;;;;;5057023;28;20040;-79
2022/05/24 11:06:59;;;;;;;1.45;0.38;;;13.80;99.90;;;;;;5056356;28;20056;-78
2022/05/24 11:09:30;;;;;;;0.25;0.25;;;13.70;99.90;;;;;;5056292;28;20052;-79
2022/05/24 11:12:11;;;;;;;1.10;0.40;;;13.60;99.90;;;;;;5056751;28;20487;-79
2022/05/24 11:14:46;;;;;;;0.63;0.38;;;13.70;99.90;;;;;;5056220;28;20046;-79
2022/05/24 11:17:14;;;;;;;1.10;0.50;;;13.60;99.90;;;;;;5057547;28;20500;-78
2022/05/24 11:19:45;;;;;;;0.40;0.40;;;13.70;99.90;;;;;;5056541;28;20051;-79
2022/05/24 11:22:35;;;;;;;0.38;0.38;;;13.70;99.90;;;;;;5056447;28;20538;-79
2022/05/24 11:25:20;;;;;;;2.10;1.00;;;13.80;99.90;;;;;;5055960;28;20040;-78
2022/05/24 11:28:01;;;;;;;0.50;0.50;;;13.80;99.90;;;;;;5055702;28;20047;-77
2022/05/24 11:30:30;;;;;;;0.60;0.35;;;13.80;99.90;;;;;;5055920;28;20094;-77
2022/05/24 11:33:15;;;;;;;1.33;0.68;;;14.00;99.90;;;;;;5056265;28;20048;-79
2022/05/24 11:35:52;;;;;;;3.13;1.10;;;14.30;99.90;;;;;;5056502;28;20435;-79
2022/05/24 11:38:23;;;;;;;2.20;1.00;;;14.50;99.90;;;;;;5072967;28;20048;-79
2022/05/24 11:41:01;;;;;;;1.45;0.80;;;14.60;99.90;;;;;;5055937;28;20040;-79
2022/05/24 11:43:39;;;;;;;1.33;0.95;;;14.70;99.90;;;;;;5056348;28;20037;-79
2022/05/24 11:46:37;;;;;;;3.03;0.95;;;14.90;99.90;;;;;;5055559;28;20048;-79
2022/05/24 11:49:18;;;;;;;0.88;0.75;;;15.00;99.90;;;;;;5056796;28;20101;-79
2022/05/24 11:51:47;;;;;;;1.08;0.90;;;15.10;99.90;;;;;;5055242;28;20140;-78
2022/05/24 11:54:16;;;;;;;1.70;0.55;;;15.10;99.90;;;;;;5055584;28;20040;-77
2022/05/24 11:57:23;;;;;;;1.08;0.80;;;14.90;99.90;;;;;;5055177;28;20082;-79
2022/05/24 11:59:51;;;;;;;0.82;0.70;;;14.80;99.90;;;;;;4978851;28;20477;-78
2022/05/24 12:08:27;;;;;;;0.98;0.73;;;14.70;99.90;;;;;;5055106;28;20044;-78
2022/05/24 12:11:08;;;;;;;0.50;0.50;;;14.90;99.90;;;;;;5054909;28;20051;-78
2022/05/24 12:13:51;;;;;;;0.50;0.50;;;15.40;99.90;;;;;;5055155;28;20044;-82
2022/05/24 12:16:37;;;;;;;0.47;0.40;;;15.10;99.90;;;;;;5055168;28;20492;-82
2022/05/24 12:19:04;;;;;;;0.63;0.60;;;;;;;;;;5054883;28;20373;-72
2022/05/24 12:22:00;;;;;;;0.90;0.57;;;;;;;;;;5071623;28;20045;-70
2022/05/24 12:24:29;;;;;;;1.88;0.85;;;15.70;99.90;;;;;;5042479;28;20048;-80
2022/05/24 12:27:33;;;;;;;1.08;0.85;;;15.80;99.90;;;;;;5054781;28;20044;-73
2022/05/24 12:30:29;;;;;;;0.70;0.60;;;15.80;99.90;;;;;;4994808;28;20081;-72
2022/05/24 12:33:04;;;;;;;0.43;0.43;;;16.00;99.90;;;;;;4978304;28;20053;-73
2022/05/24 12:35:32;;;;;;;0.50;0.50;;;16.30;99.90;;;;;;5038928;28;20045;-72
2022/05/24 12:37:58;;;;;;;0.73;0.60;;;16.50;99.90;;;;;;5054615;28;20103;-74
2022/05/24 12:40:27;;;;;;;0.55;0.55;;;16.40;99.90;;;;;;5054714;28;20089;-77
2022/05/24 12:42:54;;;;;;;0.57;0.52;;;16.40;99.90;;;;;;5054684;28;20060;-79
2022/05/24 12:45:40;;;;;;;0.68;0.60;;;16.10;99.90;;;;;;5054799;28;20051;-78
2022/05/24 12:48:24;;;;;;;0.60;0.40;;;15.80;99.90;;;;;;5056507;28;20036;-77
2022/05/24 12:50:49;;;;;;;1.55;0.60;;;15.70;99.90;;;;;;5054656;28;20036;-78
2022/05/24 12:53:22;;;;;;;1.55;0.80;;;15.60;99.90;;;;;;5054539;28;20403;-78
2022/05/24 12:56:28;;;;;;;1.10;0.60;;;15.40;99.90;;;;;;5054689;28;20135;-78
2022/05/24 12:58:55;;;;;;;0.50;0.50;;;15.30;99.90;;;;;;5005426;28;20052;-80
2022/05/24 13:01:33;;;;;;;1.95;0.45;;;15.30;99.90;;;;;;5054492;28;20040;-80
2022/05/24 13:04:11;;;;;;;0.40;0.40;;;15.10;99.90;;;;;;5055723;28;20037;-80
2022/05/24 13:06:39;;;;;;;0.45;0.40;;;15.20;99.90;;;;;;5058290;28;20047;-79
2022/05/24 13:09:26;;;;;;;0.20;0.20;;;15.40;99.90;;;;;;5058531;28;20044;-75
2022/05/24 13:12:03;;;;;;;0.32;0.30;;;15.70;99.90;;;;;;5058531;28;20040;-74
2022/05/24 13:14:49;;;;;;;0.63;0.40;;;16.00;99.90;;;;;;5058225;28;20049;-74
2022/05/24 13:17:20;;;;;;;0.65;0.43;;;16.10;99.90;;;;;;5058126;28;20040;-75
2022/05/24 13:19:57;;;;;;;0.82;0.52;;;16.00;99.90;;;;;;5058162;28;20102;-76
2022/05/24 13:22:43;;;;;;;0.35;0.35;;;15.90;99.90;;;;;;5047117;28;20535;-75
2022/05/24 13:25:53;;;;;;;0.88;0.40;;;15.80;99.90;;;;;;5034708;28;20159;-75
2022/05/24 13:28:39;;;;;;;0.40;0.40;;;15.70;99.90;;;;;;5016006;28;20049;-80
2022/05/24 13:34:33;;;;;;;0.73;0.40;;;16.10;99.90;;;;;;4981320;28;20041;-78
2022/05/24 13:37:07;;;;;;;0.70;0.50;;;16.50;99.90;;;;;;5034692;28;20045;-78
2022/05/24 13:39:39;;;;;;;0.82;0.57;;;16.40;99.90;;;;;;5035114;28;20045;-77
2022/05/24 13:42:17;;;;;;;1.40;0.85;;;16.30;99.90;;;;;;5036158;28;20482;-80
2022/05/24 13:45:06;;;;;;;0.93;0.68;;;16.30;99.90;;;;;;5034898;28;20555;-76
2022/05/24 13:47:38;;;;;;;0.80;0.65;;;16.60;99.90;;;;;;5034319;28;20099;-79
2022/05/24 13:50:31;;;;;;;0.90;0.68;;;16.80;99.90;;;;;;5017846;28;20044;-76
2022/05/24 13:52:57;;;;;;;0.82;0.68;;;16.90;99.90;;;;;;5034280;28;20042;-80
2022/05/24 13:55:29;;;;;;;2.05;0.80;;;16.90;99.90;;;;;;5034328;28;20067;-81
2022/05/24 13:58:11;;;;;;;2.45;0.52;;;16.80;99.90;;;;;;5034145;28;20084;-78
2022/05/24 14:00:48;;;;;;;0.65;0.30;;;16.70;99.90;;;;;;5034371;28;20091;-84
2022/05/24 14:03:20;;;;;;;0.68;0.68;;;16.50;99.90;;;;;;5017642;28;20084;-73